sensor_id;sensor_type;location;lat;lon;timestamp;pressure;altitude;pressure_sealevel;temperature;humidity
65054;BME280;51639;47.828;35.038;2022-12-18T00:03:16;99351.78;;;16.63;93.39
65054;BME280;51639;47.828;35.038;2022-12-18T00:18:18;99351.09;;;16.19;95.05
65054;BME280;51639;47.828;35.038;2022-12-18T00:33:21;99341.75;;;16.11;95.58
65054;BME280;51639;47.828;35.038;2022-12-18T00:48:23;99403.97;;;15.95;94.56
65054;BME280;51639;47.828;35.038;2022-12-18T01:03:25;99467.41;;;16.09;90.67
65054;BME280;51639;47.828;35.038;2022-12-18T01:18:26;99501.41;;;16.02;89.24
65054;BME280;51639;47.828;35.038;2022-12-18T01:33:28;99551.25;;;16.06;87.16
65054;BME280;51639;47.828;35.038;2022-12-18T01:48:30;99571.72;;;15.72;86.46
65054;BME280;51639;47.828;35.038;2022-12-18T02:03:32;99667.59;;;15.35;82.24
65054;BME280;51639;47.828;35.038;2022-12-18T02:18:41;99743.00;;;15.18;79.80
65054;BME280;51639;47.828;35.038;2022-12-18T02:33:46;99835.19;;;14.01;75.76
65054;BME280;51639;47.828;35.038;2022-12-18T02:48:50;99883.03;;;13.27;77.46
65054;BME280;51639;47.828;35.038;2022-12-18T03:04:01;99914.63;;;12.40;76.78
65054;BME280;51639;47.828;35.038;2022-12-18T03:19:10;100101.69;;;13.35;66.23
65054;BME280;51639;47.828;35.038;2022-12-18T03:34:19;100064.09;;;11.76;72.39
65054;BME280;51639;47.828;35.038;2022-12-18T04:04:32;100083.09;;;11.60;73.44
65054;BME280;51639;47.828;35.038;2022-12-18T04:19:35;100085.31;;;11.33;73.85
65054;BME280;51639;47.828;35.038;2022-12-18T04:34:37;100128.81;;;11.33;73.03
65054;BME280;51639;47.828;35.038;2022-12-18T04:49:38;100161.50;;;10.89;72.89
65054;BME280;51639;47.828;35.038;2022-12-18T05:04:40;100179.81;;;10.66;73.66
65054;BME280;51639;47.828;35.038;2022-12-18T05:19:42;100205.13;;;10.39;73.04
65054;BME280;51639;47.828;35.038;2022-12-18T05:34:45;100261.75;;;10.37;72.21
65054;BME280;51639;47.828;35.038;2022-12-18T05:49:46;100284.41;;;10.27;73.28
65054;BME280;51639;47.828;35.038;2022-12-18T06:04:49;100295.75;;;9.91;73.76
65054;BME280;51639;47.828;35.038;2022-12-18T06:19:51;100328.25;;;10.22;73.67
65054;BME280;51639;47.828;35.038;2022-12-18T06:34:53;100352.28;;;10.23;73.76
65054;BME280;51639;47.828;35.038;2022-12-18T06:49:55;100403.06;;;10.23;71.70
65054;BME280;51639;47.828;35.038;2022-12-18T07:04:58;100431.00;;;10.20;70.13
65054;BME280;51639;47.828;35.038;2022-12-18T10:38:53;100528.16;;;8.14;73.13
65054;BME280;51639;47.828;35.038;2022-12-18T10:54:03;100621.19;;;8.60;67.96
65054;BME280;51639;47.828;35.038;2022-12-18T11:09:20;100671.47;;;8.50;65.66
65054;BME280;51639;47.828;35.038;2022-12-18T11:24:32;100708.16;;;7.80;65.19
65054;BME280;51639;47.828;35.038;2022-12-18T11:39:51;100725.88;;;7.49;64.85
65054;BME280;51639;47.828;35.038;2022-12-18T11:54:58;100716.88;;;7.16;67.37
65054;BME280;51639;47.828;35.038;2022-12-18T12:10:08;100745.88;;;7.30;66.15
65054;BME280;51639;47.828;35.038;2022-12-18T12:40:19;100804.06;;;7.21;65.02
65054;BME280;51639;47.828;35.038;2022-12-18T12:55:42;100849.94;;;7.17;63.52
65054;BME280;51639;47.828;35.038;2022-12-18T13:10:45;100866.88;;;7.07;63.66
65054;BME280;51639;47.828;35.038;2022-12-18T13:25:51;100911.06;;;6.84;61.82
65054;BME280;51639;47.828;35.038;2022-12-18T13:40:54;100941.28;;;6.64;60.71
65054;BME280;51639;47.828;35.038;2022-12-18T13:55:57;100970.69;;;6.35;59.74
65054;BME280;51639;47.828;35.038;2022-12-18T14:11:00;100983.91;;;6.47;60.01
65054;BME280;51639;47.828;35.038;2022-12-18T14:26:20;101014.09;;;5.97;60.79
65054;BME280;51639;47.828;35.038;2022-12-18T14:41:24;101027.72;;;5.81;61.10
65054;BME280;51639;47.828;35.038;2022-12-18T14:56:32;101031.16;;;6.04;62.50
65054;BME280;51639;47.828;35.038;2022-12-18T15:11:44;101061.88;;;5.28;62.40
65054;BME280;51639;47.828;35.038;2022-12-18T15:26:46;101058.88;;;4.68;65.82
65054;BME280;51639;47.828;35.038;2022-12-18T15:41:49;101077.13;;;4.59;65.75
65054;BME280;51639;47.828;35.038;2022-12-18T15:57:10;101113.19;;;4.38;64.42
65054;BME280;51639;47.828;35.038;2022-12-18T16:12:24;101155.22;;;4.11;63.90
65054;BME280;51639;47.828;35.038;2022-12-18T19:38:25;101376.56;;;2.29;65.17
65054;BME280;51639;47.828;35.038;2022-12-18T19:53:28;101453.28;;;1.92;61.93
65054;BME280;51639;47.828;35.038;2022-12-18T20:08:38;101501.06;;;2.11;60.41
65054;BME280;51639;47.828;35.038;2022-12-18T20:23:40;101519.22;;;2.05;60.89
65054;BME280;51639;47.828;35.038;2022-12-18T20:38:43;101532.66;;;1.67;59.44
65054;BME280;51639;47.828;35.038;2022-12-18T20:53:46;101563.44;;;1.61;59.95
65054;BME280;51639;47.828;35.038;2022-12-18T21:08:48;101555.13;;;1.46;60.53
65054;BME280;51639;47.828;35.038;2022-12-18T21:23:50;101548.19;;;1.53;59.79
65054;BME280;51639;47.828;35.038;2022-12-18T21:38:53;101554.94;;;1.59;60.44
65054;BME280;51639;47.828;35.038;2022-12-18T21:53:57;101581.47;;;1.35;60.51
65054;BME280;51639;47.828;35.038;2022-12-18T22:08:59;101598.75;;;1.46;60.12
65054;BME280;51639;47.828;35.038;2022-12-18T22:24:03;101588.63;;;1.60;60.58
65054;BME280;51639;47.828;35.038;2022-12-18T22:39:10;101630.53;;;1.56;58.52
65054;BME280;51639;47.828;35.038;2022-12-18T22:54:13;101647.38;;;1.57;58.31
65054;BME280;51639;47.828;35.038;2022-12-18T23:09:18;101663.38;;;1.65;58.72
65054;BME280;51639;47.828;35.038;2022-12-18T23:24:20;101662.34;;;1.49;59.46
65054;BME280;51639;47.828;35.038;2022-12-18T23:39:22;101681.84;;;1.50;60.18
65054;BME280;51639;47.828;35.038;2022-12-18T23:54:30;101708.94;;;1.48;59.53
